Time;durP1;ratioP1;P1;durP2;ratioP2;P2;SDS_P1;SDS_P2;PMS_P1;PMS_P2;Temp;Humidity;BMP_temperature;BMP_pressure;BME280_temperature;BME280_humidity;BME280_pressure;Samples;Min_cycle;Max_cycle;Signal;HPM_P1;HPM_P2
2023/12/13 06:45:18;;;;;;;3.30;1.00;;;;;;;;;;10590230;27;20396;-84
2023/12/13 06:50:24;;;;;;;4.10;1.10;;;;;;;;;;10588512;28;20023;-84
2023/12/13 06:55:26;;;;;;;4.45;1.00;;;;;;;;;;10589454;22;20136;-84
2023/12/13 07:00:27;;;;;;;5.13;1.73;;;;;;;;;;10459079;28;20034;-86
2023/12/13 07:05:33;;;;;;;2.25;0.90;;;;;;;;;;10474946;28;20035;-85
2023/12/13 07:10:34;;;;;;;2.85;0.95;;;;;;;;;;10468632;28;20041;-85
2023/12/13 07:15:35;;;;;;;;;;;;;;;;;;10466146;28;20114;-84
2023/12/13 07:20:36;;;;;;;4.10;1.45;;;;;;;;;;10466148;28;19942;-85
2023/12/13 07:25:39;;;;;;;;;;;;;;;;;;10462490;28;20025;-85
2023/12/13 07:30:46;;;;;;;4.97;2.15;;;;;;;;;;10457978;28;20036;-85
2023/12/13 07:35:49;;;;;;;4.78;1.63;;;;;;;;;;10456586;28;20032;-85
2023/12/13 07:41:15;;;;;;;5.43;1.90;;;;;;;;;;10456259;28;20441;-87
2023/12/13 07:46:21;;;;;;;5.28;2.20;;;;;;;;;;10455002;28;20025;-86
2023/12/13 07:51:23;;;;;;;2.88;1.50;;;;;;;;;;10455676;28;20037;-84
2023/12/13 07:56:34;;;;;;;;;;;;;;;;;;10430463;28;20429;-85
2023/12/13 08:01:55;;;;;;;4.63;1.70;;;;;;;;;;10431382;28;19916;-85
2023/12/13 08:07:18;;;;;;;4.97;1.70;;;;;;;;;;10427441;28;20053;-84
2023/12/13 08:12:19;;;;;;;5.28;2.17;;;;;;;;;;10435211;28;20025;-85
2023/12/13 08:17:20;;;;;;;;;;;;;;;;;;10439501;28;20022;-85
2023/12/13 08:22:21;;;;;;;11.50;3.22;;;;;;;;;;10435913;28;20000;-85
2023/12/13 09:18:29;;;;;;;6.53;2.30;;;;;;;;;;10433100;28;20244;-84
2023/12/13 10:21:37;;;;;;;8.25;4.35;;;;;;;;;;10426525;28;20108;-83
2023/12/13 10:43:50;;;;;;;4.10;1.88;;;;;;;;;;10385766;28;20129;-85
2023/12/13 10:54:31;;;;;;;4.57;1.80;;;;;;;;;;10391183;28;20029;-84
2023/12/13 11:05:15;;;;;;;4.80;2.53;;;;;;;;;;10342884;28;19906;-85
2023/12/13 11:10:43;;;;;;;3.83;2.28;;;;;;;;;;10426178;28;20496;-84
2023/12/13 11:16:22;;;;;;;3.58;1.70;;;;;;;;;;10307320;28;20043;-84
2023/12/13 11:21:41;;;;;;;6.85;2.78;;;;;;;;;;10435293;28;20097;-84
2023/12/13 11:44:29;;;;;;;7.70;2.92;;;;;;;;;;10316686;28;20031;-84
2023/12/13 11:49:32;;;;;;;4.40;2.10;;;;;;;;;;10315931;28;20062;-84
2023/12/13 11:55:08;;;;;;;4.63;2.28;;;;;;;;;;10297339;28;20030;-84
2023/12/13 12:00:40;;;;;;;4.25;1.85;;;;;;;;;;10307786;28;20100;-84
2023/12/13 12:06:39;;;;;;;3.65;1.90;;;;;;;;;;10151067;29;20045;-85
2023/12/13 12:12:16;;;;;;;3.75;2.33;;;;;;;;;;10156564;29;20044;-84
2023/12/13 12:17:25;;;;;;;6.05;3.33;;;;;;;;;;10170111;28;20030;-83
2023/12/13 12:22:33;;;;;;;3.28;1.98;;;;;;;;;;10407888;28;20114;-84
2023/12/13 12:27:35;;;;;;;6.50;3.22;;;;;;;;;;10455288;28;20029;-84
2023/12/13 12:32:36;;;;;;;3.88;2.38;;;;;;;;;;10454989;28;20029;-84
2023/12/13 12:37:37;;;;;;;4.03;2.30;;;;;;;;;;10457439;28;20017;-84
2023/12/13 12:42:39;;;;;;;3.42;1.60;;;;;;;;;;10466261;28;20028;-83
2023/12/13 12:47:40;;;;;;;3.35;1.50;;;;;;;;;;10483420;28;20060;-84
2023/12/13 12:52:42;;;;;;;3.30;1.83;;;;;;;;;;10483781;28;20044;-84
2023/12/13 12:57:44;;;;;;;3.67;1.73;;;;;;;;;;10460979;28;20025;-85
2023/12/13 13:02:46;;;;;;;2.63;1.40;;;;;;;;;;10451591;28;20502;-85
2023/12/13 13:07:48;;;;;;;2.75;1.63;;;;;;;;;;10458952;28;20029;-84
2023/12/13 13:12:49;;;;;;;4.60;2.20;;;;;;;;;;10450599;28;20021;-85
2023/12/13 13:17:51;;;;;;;3.67;1.70;;;;;;;;;;10454089;28;20024;-84
2023/12/13 13:22:52;;;;;;;3.85;1.77;;;;;;;;;;10452700;28;20033;-82
2023/12/13 13:27:53;;;;;;;3.97;2.63;;;;;;;;;;10450768;28;20025;-85
2023/12/13 13:32:54;;;;;;;2.47;1.33;;;;;;;;;;10451544;28;20036;-85
2023/12/13 13:37:55;;;;;;;2.38;1.42;;;;;;;;;;10450248;28;20024;-85
2023/12/13 13:42:58;;;;;;;4.57;2.10;;;;;;;;;;10449735;28;20140;-84
2023/12/13 13:48:00;;;;;;;3.15;1.40;;;;;;;;;;10454244;28;20036;-85
2023/12/13 13:53:01;;;;;;;3.17;1.70;;;;;;;;;;10456289;28;20120;-85
2023/12/13 13:58:02;;;;;;;3.45;1.70;;;;;;;;;;10468003;28;20073;-85
2023/12/13 14:03:04;;;;;;;4.38;1.88;;;;;;;;;;10456177;28;20033;-85
2023/12/13 14:08:13;;;;;;;4.30;1.80;;;;;;;;;;10457395;28;20032;-85
2023/12/13 14:13:14;;;;;;;3.55;1.48;;;;;;;;;;10454478;28;20029;-85
2023/12/13 14:18:19;;;;;;;2.90;1.70;;;;;;;;;;10454249;28;20097;-85
2023/12/13 14:23:20;;;;;;;2.80;1.90;;;;;;;;;;10451791;28;20507;-85
2023/12/13 14:28:22;;;;;;;2.00;1.30;;;;;;;;;;10461219;28;20577;-83
2023/12/13 14:33:23;;;;;;;3.40;1.60;;;;;;;;;;10469487;28;20063;-85
2023/12/13 14:38:26;;;;;;;3.35;1.75;;;;;;;;;;10460136;28;20377;-83
2023/12/13 14:43:27;;;;;;;2.88;1.75;;;;;;;;;;10459321;28;20044;-84
2023/12/13 14:48:28;;;;;;;3.15;1.58;;;;;;;;;;10458903;28;20025;-85
2023/12/13 14:53:29;;;;;;;2.60;1.50;;;;;;;;;;10460765;28;20021;-84
2023/12/13 14:58:33;;;;;;;3.88;1.95;;;;;;;;;;10467986;28;20060;-83
2023/12/13 15:03:34;;;;;;;6.38;1.95;;;;;;;;;;10468258;28;20064;-82
2023/12/13 15:08:36;;;;;;;4.95;3.03;;;;;;;;;;10475958;28;20051;-84
2023/12/13 15:13:37;;;;;;;3.42;2.47;;;;;;;;;;10488447;28;20032;-85
2023/12/13 15:18:38;;;;;;;6.20;2.78;;;;;;;;;;10473500;28;20032;-85
2023/12/13 15:23:40;;;;;;;3.92;2.67;;;;;;;;;;10466613;28;20097;-84
2023/12/13 15:28:41;;;;;;;4.40;3.33;;;;;;;;;;10464576;28;20388;-83
2023/12/13 15:33:43;;;;;;;6.47;3.65;;;;;;;;;;10463521;28;20036;-83
2023/12/13 15:38:46;;;;;;;4.28;3.35;;;;;;;;;;10460793;28;20028;-83
2023/12/13 15:43:47;;;;;;;4.40;2.97;;;;;;;;;;10477787;28;20020;-85
2023/12/13 15:48:49;;;;;;;4.93;3.50;;;;;;;;;;10460210;28;20025;-83
2023/12/13 15:53:50;;;;;;;5.13;3.85;;;;;;;;;;10459707;28;20028;-84
2023/12/13 15:58:51;;;;;;;5.95;3.92;;;;;;;;;;10457546;28;20488;-82
2023/12/13 16:03:52;;;;;;;4.15;3.05;;;;;;;;;;10458179;28;20078;-86
2023/12/13 16:08:53;;;;;;;5.93;4.45;;;;;;;;;;10455925;28;20033;-86
2023/12/13 16:13:54;;;;;;;7.20;5.25;;;;;;;;;;10453151;28;20043;-84
2023/12/13 16:18:56;;;;;;;5.72;3.72;;;;;;;;;;10454135;28;20025;-84
2023/12/13 16:23:57;;;;;;;5.57;3.42;;;;;;;;;;10455047;28;20028;-84
2023/12/13 16:28:58;;;;;;;5.97;4.28;;;;;;;;;;10455592;28;20068;-84
2023/12/13 16:33:59;;;;;;;6.78;5.85;;;;;;;;;;10456971;28;20092;-84
2023/12/13 16:39:00;;;;;;;5.47;4.32;;;;;;;;;;10458821;28;20059;-83
2023/12/13 16:44:02;;;;;;;6.03;4.68;;;;;;;;;;10461015;28;20055;-83
2023/12/13 16:49:04;;;;;;;5.10;4.05;;;;;;;;;;10455082;28;20024;-83
2023/12/13 16:54:05;;;;;;;7.05;4.47;;;;;;;;;;10456636;28;20040;-83
2023/12/13 16:59:06;;;;;;;9.68;6.25;;;;;;;;;;10466795;28;20081;-83
2023/12/13 17:04:07;;;;;;;10.02;6.50;;;;;;;;;;10458529;28;20036;-84
2023/12/13 17:09:12;;;;;;;7.50;5.20;;;;;;;;;;10453050;28;20025;-83
2023/12/13 17:14:13;;;;;;;6.82;5.43;;;;;;;;;;10457270;28;20145;-84
2023/12/13 17:19:17;;;;;;;5.47;4.28;;;;;;;;;;10460206;28;20112;-82
2023/12/13 17:24:18;;;;;;;8.60;5.82;;;;;;;;;;10452045;28;20094;-80
2023/12/13 17:29:19;;;;;;;9.25;6.57;;;;;;;;;;10469442;28;20039;-84
2023/12/13 17:40:10;;;;;;;6.28;4.80;;;;;;;;;;10497408;28;20040;-85
2023/12/13 17:45:12;;;;;;;6.90;5.13;;;;;;;;;;10436586;28;20041;-86
2023/12/13 17:50:34;;;;;;;6.28;5.05;;;;;;;;;;10464962;28;20048;-85
2023/12/13 18:01:20;;;;;;;5.72;4.28;;;;;;;;;;10482627;28;20032;-85
2023/12/13 18:06:21;;;;;;;6.20;4.72;;;;;;;;;;10446862;28;20033;-85
2023/12/13 18:11:28;;;;;;;6.55;5.30;;;;;;;;;;10451923;28;20021;-86
2023/12/13 18:21:52;;;;;;;7.47;5.93;;;;;;;;;;10473745;28;20059;-86
2023/12/13 18:26:55;;;;;;;5.47;4.40;;;;;;;;;;10457524;28;20535;-86
2023/12/13 18:32:18;;;;;;;5.45;4.63;;;;;;;;;;10476649;28;20044;-85
2023/12/13 18:37:35;;;;;;;6.65;5.18;;;;;;;;;;10451608;28;20032;-86
2023/12/13 18:42:43;;;;;;;6.80;5.00;;;;;;;;;;10452314;28;20151;-86
2023/12/13 18:48:09;;;;;;;5.30;4.15;;;;;;;;;;10436438;28;20029;-86
2023/12/13 18:53:11;;;;;;;5.85;4.88;;;;;;;;;;10453024;28;20035;-86
2023/12/13 18:58:12;;;;;;;6.82;5.22;;;;;;;;;;10568129;22;20128;-85
2023/12/13 19:03:13;;;;;;;5.93;4.90;;;;;;;;;;10625535;28;20056;-84
2023/12/13 19:08:18;;;;;;;7.30;4.50;;;;;;;;;;10622997;28;20057;-85
2023/12/13 19:13:20;;;;;;;6.38;4.30;;;;;;;;;;10638753;28;20402;-85
2023/12/13 19:18:25;;;;;;;5.82;3.95;;;;;;;;;;10620781;28;20093;-84
2023/12/13 19:23:26;;;;;;;5.03;3.78;;;;;;;;;;10622141;28;20026;-84
2023/12/13 19:28:27;;;;;;;5.07;4.03;;;;;;;;;;10629303;28;20086;-84
2023/12/13 19:33:28;;;;;;;4.95;4.35;;;;;;;;;;10628055;28;20042;-85
2023/12/13 19:38:29;;;;;;;5.82;4.20;;;;;;;;;;10625100;28;20355;-85
2023/12/13 19:43:30;;;;;;;5.00;3.70;;;;;;;;;;10643977;28;20050;-84
2023/12/13 19:48:31;;;;;;;6.25;4.30;;;;;;;;;;10622554;27;20023;-84
2023/12/13 19:53:33;;;;;;;5.32;4.10;;;;;;;;;;10648930;27;20027;-84
2023/12/13 19:58:35;;;;;;;4.63;3.75;;;;;;;;;;10629828;27;20027;-86
2023/12/13 20:03:37;;;;;;;6.15;5.05;;;;;;;;;;10629569;27;20484;-84
2023/12/13 20:08:38;;;;;;;7.88;5.53;;;;;;;;;;10647630;27;20190;-84
